Time;durP1;ratioP1;P1;durP2;ratioP2;P2;SDS_P1;SDS_P2;PMS_P1;PMS_P2;Temp;Humidity;BMP_temperature;BMP_pressure;BME280_temperature;BME280_humidity;BME280_pressure;Samples;Min_cycle;Max_cycle;Signal;HPM_P1;HPM_P2
2021/06/03 00:01:32;;;;;;;3.10;2.20;;;;;;;23.41;52.69;98289.81;5108846;28;20204;-69
2021/06/03 00:03:59;;;;;;;2.77;2.10;;;;;;;23.80;50.96;98290.78;5102841;28;20321;-68
2021/06/03 00:06:26;;;;;;;2.47;1.80;;;;;;;23.43;52.75;98296.63;5103805;28;20296;-68
2021/06/03 00:08:53;;;;;;;3.50;2.30;;;;;;;23.48;53.65;98291.16;5109258;28;20227;-68
2021/06/03 00:11:20;;;;;;;3.83;2.03;;;;;;;23.50;53.03;98296.31;5104181;28;20208;-68
2021/06/03 00:13:49;;;;;;;3.80;2.40;;;;;;;23.27;53.94;98299.66;5101741;28;20231;-68
2021/06/03 00:16:17;;;;;;;3.43;2.43;;;;;;;23.67;51.99;98303.09;5108000;28;20629;-68
2021/06/03 00:18:46;;;;;;;4.93;2.57;;;;;;;23.27;53.56;98305.09;5105311;28;20697;-70
2021/06/03 00:21:13;;;;;;;6.10;2.37;;;;;;;23.20;53.39;98310.03;5109637;28;20199;-68
2021/06/03 00:23:40;;;;;;;2.70;2.20;;;;;;;23.50;52.44;98307.22;5100010;28;20205;-68
2021/06/03 00:26:07;;;;;;;4.60;2.10;;;;;;;23.39;52.90;98305.63;5098582;28;20196;-68
2021/06/03 00:28:34;;;;;;;3.80;2.37;;;;;;;23.24;52.95;98308.34;5105003;28;20562;-68
2021/06/03 00:31:01;;;;;;;3.33;2.10;;;;;;;23.10;54.31;98304.56;5107056;28;20203;-70
2021/06/03 00:33:28;;;;;;;3.27;2.50;;;;;;;22.98;55.14;98313.00;5098890;28;20242;-70
2021/06/03 00:35:56;;;;;;;2.37;2.00;;;;;;;22.95;55.31;98307.28;5109595;28;20201;-70
2021/06/03 00:38:22;;;;;;;6.63;2.10;;;;;;;23.08;54.89;98310.25;5105130;28;20271;-70
2021/06/03 00:40:49;;;;;;;3.70;2.40;;;;;;;22.78;56.10;98313.00;5109802;28;20203;-69
2021/06/03 00:43:16;;;;;;;3.33;2.27;;;;;;;22.66;57.91;98308.91;5106740;28;20196;-69
2021/06/03 00:45:43;;;;;;;3.57;2.07;;;;;;;23.03;55.50;98309.44;5103557;28;20208;-69
2021/06/03 00:48:10;;;;;;;2.67;2.03;;;;;;;22.94;56.01;98313.78;5110285;28;20230;-70
2021/06/03 00:50:38;;;;;;;6.07;2.40;;;;;;;22.99;56.25;98309.19;5106958;28;20228;-69
2021/06/03 00:53:10;;;;;;;3.47;2.23;;;;;;;22.61;58.42;98307.00;5105354;28;20224;-70
2021/06/03 00:55:38;;;;;;;3.97;2.43;;;;;;;22.69;58.23;98308.34;5109549;28;20211;-70
2021/06/03 00:58:06;;;;;;;3.07;2.27;;;;;;;22.67;57.78;98310.53;5106246;28;20216;-70
2021/06/03 01:00:33;;;;;;;3.27;2.50;;;;;;;22.32;58.89;98313.97;5104562;28;20206;-70
2021/06/03 01:03:00;;;;;;;3.90;2.60;;;;;;;22.34;59.63;98316.44;5108964;28;20203;-70
2021/06/03 01:05:29;;;;;;;3.07;2.40;;;;;;;22.41;58.42;98316.97;5107506;28;20224;-70
2021/06/03 01:07:58;;;;;;;3.00;2.20;;;;;;;22.50;57.22;98316.19;5102133;28;20699;-70
2021/06/03 01:10:30;;;;;;;3.50;2.40;;;;;;;22.44;57.97;98316.44;5110096;28;20672;-70
2021/06/03 01:13:04;;;;;;;6.23;2.83;;;;;;;22.19;58.80;98316.38;5108138;28;20226;-69
2021/06/03 01:15:32;;;;;;;3.77;2.70;;;;;;;22.43;58.45;98306.63;5109375;28;20210;-70
2021/06/03 01:18:00;;;;;;;4.03;2.67;;;;;;;22.41;58.23;98315.09;5110283;28;20220;-69
2021/06/03 01:20:27;;;;;;;5.20;3.27;;;;;;;22.18;59.07;98318.28;5110900;28;20210;-69
2021/06/03 01:22:56;;;;;;;3.87;2.47;;;;;;;22.10;59.64;98313.34;5111889;28;20207;-69
2021/06/03 01:25:25;;;;;;;5.33;2.57;;;;;;;22.25;58.82;98316.13;5109665;28;20200;-69
2021/06/03 01:27:53;;;;;;;4.40;2.90;;;;;;;22.22;58.79;98311.22;5107477;28;20224;-70
2021/06/03 01:30:24;;;;;;;5.17;2.70;;;;;;;22.03;59.69;98311.97;5113051;28;20550;-69
2021/06/03 01:32:53;;;;;;;3.93;2.90;;;;;;;21.97;60.51;98307.59;5115979;27;20234;-69
2021/06/03 01:35:23;;;;;;;6.07;2.80;;;;;;;21.93;60.51;98312.75;5106506;27;20240;-69
2021/06/03 01:37:51;;;;;;;9.03;3.60;;;;;;;22.15;59.57;98318.78;5112470;27;20223;-69
2021/06/03 01:40:19;;;;;;;4.17;2.70;;;;;;;22.26;58.67;98328.66;5114230;28;20206;-69
2021/06/03 01:42:48;;;;;;;5.63;2.90;;;;;;;21.64;61.62;98324.28;5103458;28;21751;-70
2021/06/03 01:45:16;;;;;;;4.20;2.50;;;;;;;21.96;60.88;98327.72;5108260;28;20225;-70
2021/06/03 01:47:44;;;;;;;4.30;2.40;;;;;;;22.02;60.86;98327.47;5109714;28;20224;-69
2021/06/03 01:50:12;;;;;;;4.93;2.80;;;;;;;21.99;60.95;98324.47;5112357;28;20215;-70
2021/06/03 01:52:39;;;;;;;5.73;2.80;;;;;;;22.00;61.60;98326.09;5112710;28;20302;-70
2021/06/03 01:55:08;;;;;;;3.53;2.60;;;;;;;21.44;64.75;98321.44;5111846;28;20233;-70
2021/06/03 01:57:36;;;;;;;4.10;2.50;;;;;;;21.76;63.54;98317.56;5110419;28;20228;-70
2021/06/03 02:00:07;;;;;;;3.33;2.70;;;;;;;21.91;63.12;98324.97;5113240;27;20199;-70
2021/06/03 02:02:34;;;;;;;2.80;2.03;;;;;;;21.87;63.15;98321.13;5105413;28;20221;-70
2021/06/03 02:05:01;;;;;;;3.97;2.23;;;;;;;21.66;64.83;98324.81;5107451;28;20623;-70
2021/06/03 02:07:27;;;;;;;5.60;2.57;;;;;;;21.65;65.27;98320.47;5110687;28;20226;-70
2021/06/03 02:09:54;;;;;;;3.47;2.50;;;;;;;21.44;66.43;98327.66;5113067;28;20199;-70
2021/06/03 02:12:21;;;;;;;4.43;2.77;;;;;;;21.59;65.86;98326.97;5108431;28;20632;-70
2021/06/03 02:14:51;;;;;;;6.33;2.50;;;;;;;21.44;67.35;98327.66;5109831;28;20828;-70
2021/06/03 02:17:20;;;;;;;3.27;2.30;;;;;;;21.86;65.78;98324.94;5112255;27;20305;-70
2021/06/03 02:19:53;;;;;;;3.50;2.33;;;;;;;21.81;66.53;98320.31;5105262;28;20203;-70
2021/06/03 02:22:20;;;;;;;3.00;2.27;;;;;;;21.66;67.11;98322.94;5109684;28;20203;-69
2021/06/03 02:24:48;;;;;;;4.50;2.60;;;;;;;21.87;66.13;98323.84;5112564;28;20614;-70
2021/06/03 02:27:16;;;;;;;3.53;2.60;;;;;;;21.80;67.50;98320.56;5112040;28;20226;-70
2021/06/03 02:29:44;;;;;;;3.67;2.20;;;;;;;21.90;67.26;98326.88;5114154;27;20664;-69
2021/06/03 02:32:11;;;;;;;3.13;2.27;;;;;;;22.09;65.90;98321.78;5111621;28;20214;-69
2021/06/03 02:34:39;;;;;;;3.70;2.70;;;;;;;21.75;67.25;98320.56;5106757;28;20252;-69
2021/06/03 02:37:09;;;;;;;3.80;2.50;;;;;;;22.13;65.57;98329.13;5111196;28;20220;-70
2021/06/03 02:39:35;;;;;;;3.00;2.47;;;;;;;22.12;67.23;98330.22;5112988;28;20200;-70
2021/06/03 02:42:02;;;;;;;4.43;2.40;;;;;;;22.17;66.32;98337.56;5104093;27;20196;-70
2021/06/03 02:44:32;;;;;;;4.13;2.30;;;;;;;22.54;64.69;98330.91;5108902;28;20652;-70
2021/06/03 02:46:59;;;;;;;4.13;2.40;;;;;;;22.60;64.47;98329.03;5096976;28;20215;-70
2021/06/03 02:49:26;;;;;;;3.77;2.40;;;;;;;22.54;64.23;98330.09;5107278;28;20204;-70
2021/06/03 02:51:54;;;;;;;6.27;2.83;;;;;;;22.36;66.98;98336.84;5102483;28;20706;-69
2021/06/03 02:54:21;;;;;;;5.47;2.60;;;;;;;22.74;64.43;98330.94;5100258;28;20220;-70
2021/06/03 02:56:47;;;;;;;4.80;2.40;;;;;;;22.76;64.86;98333.41;5105130;28;20207;-70
2021/06/03 02:59:14;;;;;;;4.07;2.27;;;;;;;22.72;64.96;98332.28;5104795;28;20208;-70
2021/06/03 03:01:41;;;;;;;4.60;2.73;;;;;;;22.69;65.73;98333.66;5107252;27;20200;-70
2021/06/03 03:04:08;;;;;;;3.03;2.40;;;;;;;22.58;66.46;98347.50;5098101;28;20663;-70
2021/06/03 03:06:35;;;;;;;3.37;2.93;;;;;;;22.21;68.13;98344.94;5109124;28;20255;-70
2021/06/03 03:09:03;;;;;;;4.23;2.93;;;;;;;22.80;66.16;98346.19;5103002;28;20270;-69
2021/06/03 03:11:30;;;;;;;4.40;2.80;;;;;;;22.74;66.65;98351.88;5107232;28;20636;-70
2021/06/03 03:13:57;;;;;;;4.60;3.50;;;;;;;23.00;64.78;98359.81;5108501;28;20297;-70
2021/06/03 03:16:24;;;;;;;4.43;2.87;;;;;;;22.98;65.01;98348.38;5108031;28;20208;-70
2021/06/03 03:18:50;;;;;;;5.77;3.13;;;;;;;22.78;66.14;98355.69;5112236;28;20239;-70
2021/06/03 03:21:17;;;;;;;5.63;3.20;;;;;;;22.92;65.00;98354.91;5105457;28;20252;-70
2021/06/03 03:23:44;;;;;;;3.50;2.73;;;;;;;22.73;67.17;98358.41;5111929;28;20250;-70
2021/06/03 03:26:13;;;;;;;3.73;3.07;;;;;;;23.08;64.79;98362.00;5104004;28;20303;-70
2021/06/03 03:28:40;;;;;;;4.17;3.13;;;;;;;23.21;63.65;98366.91;5102271;28;20277;-70
2021/06/03 03:31:07;;;;;;;3.10;2.73;;;;;;;23.13;63.79;98374.78;5103932;28;20568;-70
2021/06/03 03:33:34;;;;;;;4.70;2.80;;;;;;;23.13;64.20;98372.91;5101704;28;20255;-69
2021/06/03 03:36:01;;;;;;;4.97;2.90;;;;;;;23.03;65.17;98378.34;5105035;28;20204;-71
2021/06/03 03:38:28;;;;;;;5.40;3.07;;;;;;;23.03;65.60;98372.88;5109804;28;20283;-70
2021/06/03 03:40:55;;;;;;;3.87;3.13;;;;;;;23.18;64.42;98374.81;5100831;28;20210;-70
2021/06/03 03:43:23;;;;;;;5.43;2.70;;;;;;;23.20;64.85;98376.19;5110625;28;20286;-70
2021/06/03 03:45:50;;;;;;;4.40;2.90;;;;;;;23.40;63.73;98373.44;5101431;28;20200;-70
2021/06/03 03:48:17;;;;;;;3.30;2.50;;;;;;;23.28;63.30;98369.38;5104835;28;20231;-70
2021/06/03 03:50:43;;;;;;;4.80;2.67;;;;;;;23.55;62.64;98373.44;5106479;28;20204;-70
2021/06/03 03:53:10;;;;;;;5.53;2.70;;;;;;;23.42;62.91;98376.72;5106088;28;20235;-70
2021/06/03 03:55:37;;;;;;;4.00;2.90;;;;;;;23.42;63.29;98375.91;5108947;28;20211;-70
2021/06/03 03:58:04;;;;;;;4.27;2.70;;;;;;;23.29;63.58;98374.56;5104524;28;20224;-70
2021/06/03 04:00:34;;;;;;;5.43;2.90;;;;;;;23.37;63.02;98381.38;5110709;28;20668;-70
2021/06/03 04:03:03;;;;;;;4.47;2.70;;;;;;;23.36;63.67;98377.00;5104647;28;20203;-70
2021/06/03 04:05:29;;;;;;;3.63;3.10;;;;;;;23.53;62.30;98380.25;5110766;28;20200;-70
2021/06/03 04:07:56;;;;;;;4.00;2.67;;;;;;;23.59;62.68;98387.31;5107363;28;20216;-70
2021/06/03 04:10:23;;;;;;;3.60;2.80;;;;;;;23.77;62.12;98393.00;5106642;28;20209;-70
2021/06/03 04:12:51;;;;;;;5.50;2.90;;;;;;;23.42;63.75;98384.09;5106967;28;20245;-69
2021/06/03 04:15:18;;;;;;;3.00;2.70;;;;;;;23.50;64.71;98389.78;5107034;28;20229;-70
2021/06/03 04:17:47;;;;;;;4.63;3.10;;;;;;;23.54;64.95;98387.31;5106987;28;20219;-70
2021/06/03 04:20:16;;;;;;;4.67;2.60;;;;;;;23.79;63.77;98395.47;5107834;28;20211;-71
2021/06/03 04:22:43;;;;;;;6.97;2.90;;;;;;;23.84;63.46;98393.56;5108685;28;20207;-70
2021/06/03 04:25:10;;;;;;;4.80;2.67;;;;;;;24.01;63.40;98396.81;5103196;28;20206;-70
2021/06/03 04:27:38;;;;;;;3.43;2.70;;;;;;;24.04;62.93;98395.44;5109215;28;20224;-70
2021/06/03 04:30:07;;;;;;;3.27;2.57;;;;;;;23.95;64.59;98397.09;5103297;28;20203;-70
2021/06/03 04:32:34;;;;;;;5.27;2.87;;;;;;;24.01;64.33;98399.53;5106728;28;20206;-70
2021/06/03 04:35:04;;;;;;;2.93;2.60;;;;;;;24.20;63.83;98402.47;5107691;28;20239;-70
2021/06/03 04:37:30;;;;;;;3.97;2.67;;;;;;;24.27;63.36;98403.78;5102617;28;20227;-68
2021/06/03 04:39:57;;;;;;;4.07;3.23;;;;;;;24.12;63.57;98408.50;5095980;28;20194;-68
2021/06/03 04:42:24;;;;;;;4.63;3.00;;;;;;;24.19;64.25;98409.03;5098291;28;20824;-67
2021/06/03 04:44:51;;;;;;;4.17;2.83;;;;;;;24.33;64.06;98412.78;5094510;28;20203;-67
2021/06/03 04:47:18;;;;;;;3.73;2.50;;;;;;;24.37;63.86;98411.94;5109470;28;20599;-67
2021/06/03 04:49:45;;;;;;;3.80;3.00;;;;;;;24.56;62.98;98415.69;5110415;28;20217;-68
2021/06/03 04:52:25;;;;;;;2.77;2.57;;;;;;;24.61;62.90;98418.41;5110062;28;20282;-68
2021/06/03 04:54:53;;;;;;;3.50;2.70;;;;;;;24.63;62.45;98412.69;5109609;28;20216;-68
2021/06/03 04:57:19;;;;;;;4.03;2.70;;;;;;;24.66;62.62;98421.13;5114859;28;20266;-69
2021/06/03 04:59:46;;;;;;;4.17;2.40;;;;;;;25.04;61.75;98412.13;5112634;28;20546;-68
2021/06/03 05:02:13;;;;;;;4.40;2.97;;;;;;;25.19;60.76;98413.97;5109136;28;20202;-68
2021/06/03 05:04:40;;;;;;;4.90;3.07;;;;;;;25.11;60.71;98414.56;5103154;28;20199;-68
2021/06/03 05:07:07;;;;;;;3.37;2.30;;;;;;;25.30;59.93;98413.63;5096945;28;20221;-68
2021/06/03 05:09:35;;;;;;;4.27;2.60;;;;;;;25.19;60.19;98428.44;5105233;28;20666;-69
2021/06/03 05:12:02;;;;;;;4.10;2.57;;;;;;;25.39;60.92;98430.25;5101656;28;20765;-69
2021/06/03 05:14:29;;;;;;;5.80;2.70;;;;;;;25.34;61.62;98433.81;5106407;28;20270;-69
2021/06/03 05:16:56;;;;;;;5.67;2.60;;;;;;;25.64;59.88;98435.50;5100304;28;20228;-67
2021/06/03 05:19:23;;;;;;;3.07;2.50;;;;;;;25.70;59.33;98437.88;5101846;28;20223;-69
2021/06/03 05:21:49;;;;;;;5.33;2.80;;;;;;;25.92;58.27;98445.63;5107896;28;20204;-69
2021/06/03 05:24:16;;;;;;;3.97;2.70;;;;;;;25.66;57.71;98442.31;5098898;28;20199;-69
2021/06/03 05:26:45;;;;;;;3.20;2.57;;;;;;;26.12;56.38;98445.44;5103750;28;20205;-69
2021/06/03 05:29:14;;;;;;;2.97;2.60;;;;;;;25.97;56.49;98448.31;5106665;28;20652;-69
2021/06/03 05:31:42;;;;;;;3.13;2.50;;;;;;;24.94;59.91;98447.72;5110716;28;20214;-69
2021/06/03 05:34:08;;;;;;;4.97;2.93;;;;;;;24.90;59.13;98456.75;5100274;28;20228;-69
2021/06/03 05:36:35;;;;;;;6.63;3.10;;;;;;;25.57;57.04;98446.75;5100366;28;20661;-70
2021/06/03 05:39:02;;;;;;;4.97;2.70;;;;;;;25.82;54.69;98456.63;5103433;28;20204;-70
2021/06/03 05:41:29;;;;;;;5.13;3.10;;;;;;;26.74;51.79;98468.00;5112576;28;20215;-69
2021/06/03 05:43:57;;;;;;;4.77;3.07;;;;;;;27.65;47.30;98473.78;5111786;27;20216;-75
2021/06/03 05:46:24;;;;;;;4.87;2.87;;;;;;;27.82;46.57;98476.03;5111022;28;20204;-75
2021/06/03 05:48:51;;;;;;;4.10;2.67;;;;;;;27.46;47.96;98480.44;5108179;28;20246;-73
2021/06/03 05:51:18;;;;;;;5.93;3.13;;;;;;;27.05;50.05;98471.94;5113105;28;20212;-75
2021/06/03 05:53:45;;;;;;;3.77;2.60;;;;;;;25.15;57.95;98464.81;5111528;28;20582;-75
2021/06/03 05:56:11;;;;;;;3.50;2.70;;;;;;;25.47;57.49;98455.03;5110490;28;20207;-79
2021/06/03 05:58:38;;;;;;;3.70;2.83;;;;;;;25.27;58.53;98474.31;5108314;27;20220;-74
2021/06/03 06:01:07;;;;;;;3.80;2.60;;;;;;;26.05;56.13;98461.38;5098797;28;20201;-76
2021/06/03 06:03:38;;;;;;;3.70;2.70;;;;;;;25.37;59.17;98466.03;5101676;28;20307;-77
2021/06/03 06:06:23;;;;;;;5.80;2.70;;;;;;;26.13;56.45;98463.47;5105777;28;20551;-71
2021/06/03 06:08:50;;;;;;;4.00;2.50;;;;;;;25.76;58.93;98474.19;5110589;28;20228;-75
2021/06/03 06:11:17;;;;;;;3.83;2.73;;;;;;;27.00;55.06;98487.66;5112880;27;20342;-75
2021/06/03 06:13:44;;;;;;;5.60;3.13;;;;;;;27.24;54.00;98478.28;5101864;27;20231;-71
2021/06/03 06:16:13;;;;;;;4.10;2.43;;;;;;;25.90;56.33;98486.13;5106597;28;20204;-70
2021/06/03 06:18:41;;;;;;;4.00;2.23;;;;;;;26.26;56.41;98480.03;5101151;27;20217;-72
2021/06/03 06:21:08;;;;;;;2.83;2.27;;;;;;;26.19;57.58;98484.22;5099800;28;20211;-70
2021/06/03 06:23:36;;;;;;;2.43;2.23;;;;;;;26.38;57.13;98483.19;5108040;28;20321;-71
2021/06/03 06:26:04;;;;;;;3.40;2.20;;;;;;;27.19;54.50;98491.22;5106146;28;20204;-71
2021/06/03 06:28:31;;;;;;;3.60;2.27;;;;;;;27.57;53.80;98484.63;5099056;28;20739;-71
2021/06/03 06:30:58;;;;;;;2.73;2.50;;;;;;;26.96;54.45;98497.56;5104724;28;20282;-72
2021/06/03 06:33:26;;;;;;;2.67;2.10;;;;;;;26.56;58.29;98496.13;5097185;28;20200;-70
2021/06/03 06:35:53;;;;;;;3.87;2.03;;;;;;;27.58;54.12;98503.53;5098658;28;20668;-73
2021/06/03 06:38:22;;;;;;;2.80;2.20;;;;;;;27.47;55.62;98501.25;5111192;28;20228;-71
2021/06/03 06:40:49;;;;;;;5.07;2.20;;;;;;;28.24;51.84;98501.34;5106841;27;20209;-70
2021/06/03 06:43:17;;;;;;;3.80;2.27;;;;;;;28.31;50.95;98509.16;5102609;28;20566;-70
2021/06/03 06:45:44;;;;;;;2.63;2.37;;;;;;;27.65;52.09;98509.44;5102813;27;20196;-74
2021/06/03 06:48:13;;;;;;;3.67;2.40;;;;;;;27.17;54.06;98507.97;5111571;27;20752;-71
2021/06/03 06:50:42;;;;;;;4.23;2.53;;;;;;;27.74;52.37;98513.16;5106965;28;20212;-73
2021/06/03 06:53:09;;;;;;;4.97;2.10;;;;;;;28.25;50.97;98516.69;5113240;28;20208;-74
2021/06/03 06:55:37;;;;;;;2.30;1.97;;;;;;;28.55;50.65;98507.91;5113688;28;20228;-72
2021/06/03 06:58:04;;;;;;;2.93;2.40;;;;;;;27.39;55.00;98500.00;5105850;28;20221;-72
2021/06/03 07:00:32;;;;;;;3.50;2.20;;;;;;;28.16;51.99;98506.69;5107243;28;20683;-71
2021/06/03 07:02:59;;;;;;;3.40;2.40;;;;;;;27.90;53.02;98505.50;5099183;28;20219;-71
2021/06/03 07:05:27;;;;;;;3.10;2.20;;;;;;;26.14;60.31;98503.44;5102627;27;20620;-71
2021/06/03 07:07:55;;;;;;;2.30;1.90;;;;;;;26.14;61.37;98487.00;5104789;28;20215;-71
2021/06/03 07:10:23;;;;;;;2.20;1.90;;;;;;;25.42;65.87;98487.03;5110112;28;20200;-82
2021/06/03 07:12:50;;;;;;;2.03;1.60;;;;;;;26.23;63.33;98493.47;5118752;28;20196;-74
2021/06/03 07:15:18;;;;;;;2.93;1.97;;;;;;;25.62;66.55;98487.72;5120134;27;20229;-74
2021/06/03 07:17:45;;;;;;;2.37;1.93;;;;;;;25.51;67.01;98488.06;5115082;27;20253;-75
2021/06/03 07:20:14;;;;;;;3.53;1.90;;;;;;;25.83;66.24;98489.19;5113574;28;20196;-74
2021/06/03 07:22:44;;;;;;;2.50;1.80;;;;;;;25.56;67.00;98485.31;5115167;28;20212;-77
2021/06/03 07:25:13;;;;;;;4.13;2.07;;;;;;;25.78;66.00;98489.22;5112248;28;20293;-82
2021/06/03 07:27:42;;;;;;;3.17;1.90;;;;;;;25.99;65.45;98495.38;5113285;28;20227;-78
2021/06/03 07:30:11;;;;;;;5.27;2.00;;;;;;;26.02;65.29;98490.13;5114430;27;20203;-82
2021/06/03 07:32:37;;;;;;;2.70;1.90;;;;;;;26.51;62.80;98496.16;5109609;28;21290;-73
2021/06/03 07:35:09;;;;;;;2.77;2.00;;;;;;;27.28;59.91;98497.69;5100809;28;20310;-80
2021/06/03 07:37:36;;;;;;;4.83;2.10;;;;;;;27.61;56.66;98505.66;5112608;28;20707;-75
2021/06/03 07:40:04;;;;;;;4.33;2.27;;;;;;;26.97;59.25;98493.72;5106532;27;21672;-75
2021/06/03 07:42:33;;;;;;;4.57;2.30;;;;;;;27.52;57.40;98506.66;5103243;28;20302;-71
2021/06/03 07:44:59;;;;;;;5.90;2.80;;;;;;;29.22;49.45;98517.22;5097988;28;20197;-72
2021/06/03 07:47:26;;;;;;;4.77;3.03;;;;;;;26.83;57.35;98501.00;5108162;28;20709;-72
2021/06/03 07:49:53;;;;;;;4.50;3.00;;;;;;;27.79;54.44;98504.03;5108252;28;20694;-73
2021/06/03 07:52:20;;;;;;;4.20;2.70;;;;;;;28.31;53.01;98506.41;5100368;28;20204;-73
2021/06/03 07:54:47;;;;;;;3.33;2.20;;;;;;;27.44;54.91;98499.91;5095610;28;20222;-70
2021/06/03 07:57:13;;;;;;;4.07;2.43;;;;;;;27.34;55.56;98497.31;5102518;28;20229;-72
2021/06/03 07:59:41;;;;;;;4.90;2.70;;;;;;;27.81;53.63;98504.53;5106514;28;20209;-77
2021/06/03 08:02:08;;;;;;;2.37;2.00;;;;;;;29.05;48.85;98508.81;5114500;28;20198;-77
2021/06/03 08:04:35;;;;;;;4.73;2.43;;;;;;;28.25;51.83;98505.69;5116766;28;20203;-80
2021/06/03 08:07:02;;;;;;;2.13;1.63;;;;;;;29.62;46.71;98506.16;5107222;28;20220;-78
2021/06/03 08:09:29;;;;;;;2.45;1.60;;;;;;;30.20;43.50;98511.59;5102438;28;20206;-73
2021/06/03 08:11:58;;;;;;;2.40;1.50;;;;;;;30.18;42.83;98517.44;5099360;28;20200;-75
2021/06/03 08:14:24;;;;;;;4.63;1.58;;;;;;;29.67;44.71;98507.97;5112994;28;20232;-74
2021/06/03 08:16:53;;;;;;;2.15;1.58;;;;;;;31.23;40.23;98521.94;5105433;28;20208;-80
2021/06/03 08:19:20;;;;;;;7.00;1.70;;;;;;;31.83;39.48;98523.63;5108225;28;20295;-80
2021/06/03 08:21:47;;;;;;;5.78;1.75;;;;;;;31.06;40.54;98519.91;5111186;28;20708;-75
2021/06/03 08:24:14;;;;;;;5.38;1.73;;;;;;;31.18;39.51;98522.88;5101238;28;20203;-71
2021/06/03 08:26:41;;;;;;;2.78;1.85;;;;;;;31.42;38.64;98520.50;5100888;28;20240;-71
2021/06/03 08:29:08;;;;;;;3.58;1.45;;;;;;;32.17;36.76;98520.00;5101287;28;20243;-70
2021/06/03 08:31:35;;;;;;;2.75;1.48;;;;;;;32.20;37.14;98513.81;5105934;28;20208;-70
2021/06/03 08:34:04;;;;;;;2.63;1.48;;;;;;;31.51;38.72;98510.28;5109222;28;20227;-75
2021/06/03 08:36:31;;;;;;;4.22;2.70;;;;;;;32.40;36.72;98510.38;5106241;27;20207;-70
2021/06/03 08:38:58;;;;;;;2.88;1.40;;;;;;;32.28;36.89;98511.06;5101579;28;20226;-70
2021/06/03 08:41:25;;;;;;;3.28;1.80;;;;;;;31.65;36.84;98513.69;5105647;28;20200;-70
2021/06/03 08:43:52;;;;;;;3.38;1.60;;;;;;;30.81;39.90;98500.56;5118785;27;20706;-69
2021/06/03 08:46:19;;;;;;;2.83;1.55;;;;;;;31.95;38.35;98517.44;5108763;28;20219;-71
2021/06/03 08:48:46;;;;;;;2.92;1.80;;;;;;;31.72;37.46;98510.47;5113455;28;20234;-72
2021/06/03 08:51:15;;;;;;;1.40;1.30;;;;;;;30.96;39.16;98509.19;5107957;28;20212;-71
2021/06/03 08:53:42;;;;;;;3.67;1.75;;;;;;;31.46;37.09;98515.13;5108228;28;20235;-72
2021/06/03 08:56:14;;;;;;;3.38;1.65;;;;;;;31.94;36.03;98513.88;5104785;28;20224;-70
2021/06/03 08:58:42;;;;;;;2.25;1.70;;;;;;;31.39;38.58;98512.88;5110372;28;20735;-71
2021/06/03 09:01:09;;;;;;;2.03;1.20;;;;;;;31.82;37.65;98512.91;5109846;28;20257;-74
2021/06/03 09:03:36;;;;;;;3.65;1.58;;;;;;;32.04;35.93;98513.53;5115666;28;20287;-75
2021/06/03 09:06:04;;;;;;;2.30;1.60;;;;;;;30.68;38.51;98516.09;5116663;27;20219;-78
2021/06/03 09:08:34;;;;;;;3.00;1.80;;;;;;;29.84;40.98;98510.84;5109165;28;20228;-75
2021/06/03 09:11:02;;;;;;;4.53;1.55;;;;;;;30.41;40.53;98512.69;5112224;28;20195;-77
2021/06/03 09:13:30;;;;;;;2.28;1.60;;;;;;;30.95;40.36;98506.75;5114676;28;20207;-74
2021/06/03 09:15:59;;;;;;;2.22;1.52;;;;;;;31.25;38.09;98512.22;5106094;28;20231;-76
2021/06/03 09:18:30;;;;;;;2.90;1.50;;;;;;;32.17;36.74;98514.50;5109622;28;20321;-75
2021/06/03 09:21:07;;;;;;;3.10;1.52;;;;;;;31.57;36.77;98514.50;5115321;27;20204;-76
2021/06/03 09:23:36;;;;;;;3.42;1.65;;;;;;;31.29;37.64;98499.41;5111894;28;20206;-77
2021/06/03 09:26:07;;;;;;;2.22;1.52;;;;;;;31.37;38.85;98500.53;5107340;28;20315;-72
2021/06/03 09:28:35;;;;;;;3.13;1.38;;;;;;;31.47;38.89;98506.53;5104758;28;20246;-75
2021/06/03 09:31:06;;;;;;;5.35;1.65;;;;;;;32.21;36.50;98504.38;5114914;28;20715;-75
2021/06/03 09:33:51;;;;;;;3.15;1.77;;;;;;;31.94;36.52;98508.34;5105538;28;20294;-76
2021/06/03 09:36:21;;;;;;;3.58;1.60;;;;;;;31.79;36.79;98511.63;5108078;28;20285;-76
2021/06/03 09:38:54;;;;;;;2.13;1.52;;;;;;;32.46;35.66;98514.59;5117474;27;20216;-76
2021/06/03 09:41:31;;;;;;;3.58;1.70;;;;;;;31.76;37.12;98503.97;5113801;27;20216;-73
2021/06/03 09:44:10;;;;;;;1.85;1.67;;;;;;;32.24;36.23;98501.75;5107257;28;20208;-77
2021/06/03 09:46:40;;;;;;;7.60;2.00;;;;;;;32.60;35.36;98504.94;5105456;27;20212;-78
2021/06/03 09:49:08;;;;;;;2.67;2.03;;;;;;;32.11;37.76;98496.44;5114232;27;20219;-78
2021/06/03 09:51:38;;;;;;;1.95;1.70;;;;;;;31.85;38.05;98504.78;5114778;27;20204;-78
2021/06/03 09:54:09;;;;;;;3.75;2.00;;;;;;;32.46;37.31;98500.75;5117898;28;20660;-78
2021/06/03 09:56:39;;;;;;;4.35;2.05;;;;;;;30.92;39.49;98493.63;5116923;28;20212;-78
2021/06/03 09:59:16;;;;;;;7.13;2.20;;;;;;;30.70;40.63;98489.00;5109920;27;20582;-78
2021/06/03 10:01:48;;;;;;;1.50;1.40;;;;;;;30.95;40.45;98481.94;5101620;27;20199;-77
2021/06/03 10:04:18;;;;;;;2.85;1.85;;;;;;;30.54;42.26;98478.69;5112773;28;20204;-77
2021/06/03 10:06:56;;;;;;;3.25;1.70;;;;;;;31.86;39.26;98481.56;5110616;28;20200;-76
2021/06/03 10:09:53;;;;;;;1.70;1.52;;;;;;;31.52;38.81;98489.81;5109043;28;20208;-77
2021/06/03 10:12:41;;;;;;;3.35;1.95;;;;;;;31.78;38.84;98487.09;5108079;28;20200;-77
2021/06/03 10:15:34;;;;;;;1.75;1.50;;;;;;;30.47;39.77;98483.88;5106742;28;20204;-76
2021/06/03 10:18:03;;;;;;;4.50;1.70;;;;;;;30.84;39.36;98486.94;5102366;28;20219;-75
2021/06/03 10:20:39;;;;;;;2.08;1.77;;;;;;;31.18;38.33;98481.50;5113248;28;20200;-76
2021/06/03 10:23:07;;;;;;;5.53;2.03;;;;;;;30.18;39.84;98480.78;5108789;28;20195;-78
2021/06/03 10:25:36;;;;;;;7.95;2.22;;;;;;;31.37;37.49;98482.03;5112166;28;20261;-76
2021/06/03 10:28:06;;;;;;;6.38;1.80;;;;;;;33.27;34.13;98488.31;5106060;28;20560;-74
2021/06/03 10:30:34;;;;;;;2.17;1.50;;;;;;;33.61;32.84;98488.91;5113128;28;20196;-73
2021/06/03 10:33:04;;;;;;;1.65;1.30;;;;;;;34.60;29.85;98498.81;5104765;28;20684;-75
2021/06/03 10:35:33;;;;;;;8.55;2.13;;;;;;;34.00;29.36;98505.00;5104113;28;20224;-74
2021/06/03 10:38:00;;;;;;;3.20;1.50;;;;;;;34.32;29.42;98500.63;5102533;28;20288;-75
2021/06/03 10:40:31;;;;;;;3.92;1.65;;;;;;;33.64;30.33;98498.50;5111983;28;20203;-75
2021/06/03 10:43:00;;;;;;;3.83;1.25;;;;;;;34.56;28.40;98497.91;5111998;28;20285;-76
2021/06/03 10:45:28;;;;;;;4.03;1.52;;;;;;;30.89;35.18;98485.97;5100251;28;20211;-76
2021/06/03 10:47:56;;;;;;;1.88;1.40;;;;;;;30.94;35.55;98475.63;5116284;27;20562;-73
2021/06/03 10:50:26;;;;;;;2.40;1.38;;;;;;;31.79;34.08;98483.19;5107183;27;20220;-74
2021/06/03 10:52:53;;;;;;;2.75;1.48;;;;;;;31.45;34.82;98478.47;5107782;28;20614;-80
2021/06/03 10:55:28;;;;;;;4.97;1.60;;;;;;;32.68;32.53;98476.44;5103411;28;20656;-76
2021/06/03 10:57:58;;;;;;;2.72;1.73;;;;;;;33.10;33.27;98477.38;5112547;28;20225;-76
2021/06/03 11:00:32;;;;;;;6.78;1.80;;;;;;;33.28;30.17;98482.47;5112827;28;20293;-74
2021/06/03 11:03:00;;;;;;;1.80;1.30;;;;;;;32.84;30.42;98490.56;5101437;28;20670;-74
2021/06/03 11:05:30;;;;;;;8.15;1.73;;;;;;;33.58;30.03;98483.22;5112219;28;20194;-73
2021/06/03 11:07:57;;;;;;;2.88;1.65;;;;;;;33.01;30.35;98488.50;5112655;28;20271;-77
2021/06/03 11:10:26;;;;;;;7.60;1.90;;;;;;;33.76;29.40;98487.47;5103026;28;20686;-77
2021/06/03 11:13:15;;;;;;;2.95;1.58;;;;;;;32.92;31.63;98478.63;5105085;28;20210;-76
2021/06/03 11:16:09;;;;;;;9.23;1.88;;;;;;;32.73;31.00;98475.47;5100070;28;20235;-77
2021/06/03 11:18:58;;;;;;;2.42;1.27;;;;;;;34.03;29.47;98487.72;5103583;28;20249;-75
2021/06/03 11:21:57;;;;;;;1.52;1.27;;;;;;;34.07;28.68;98493.38;5082627;28;20201;-76
2021/06/03 11:24:41;;;;;;;4.03;1.73;;;;;;;31.86;38.31;98473.28;5104262;28;20195;-75
2021/06/03 11:27:09;;;;;;;2.58;1.58;;;;;;;31.14;40.23;98469.50;5107377;28;20287;-72
2021/06/03 11:29:40;;;;;;;3.45;1.60;;;;;;;30.87;41.52;98461.47;5103346;28;20207;-76
2021/06/03 11:32:18;;;;;;;1.65;1.40;;;;;;;30.71;41.82;98454.78;5104216;28;20230;-78
2021/06/03 11:34:47;;;;;;;1.75;1.52;;;;;;;31.10;41.04;98456.66;5102637;28;20216;-74
2021/06/03 11:37:15;;;;;;;2.85;1.63;;;;;;;32.15;39.20;98454.03;5105096;28;20299;-77
2021/06/03 11:39:45;;;;;;;3.33;1.50;;;;;;;33.12;37.01;98462.06;5104537;28;20200;-82
2021/06/03 11:42:33;;;;;;;1.63;1.40;;;;;;;32.94;35.86;98468.03;5100584;28;20259;-71